Time;durP1;ratioP1;P1;durP2;ratioP2;P2;SDS_P1;SDS_P2;PMS_P1;PMS_P2;Temp;Humidity;BMP_temperature;BMP_pressure;BME280_temperature;BME280_humidity;BME280_pressure;Samples;Min_cycle;Max_cycle;Signal;HPM_P1;HPM_P2
2021/10/12 00:00:58;;;;;;;3.80;3.50;;;;;;;21.11;65.31;98114.31;4969382;28;20243;-62
2021/10/12 00:03:25;;;;;;;3.73;3.43;;;;;;;21.11;65.44;98117.72;4982498;28;20211;-63
2021/10/12 00:05:52;;;;;;;3.70;3.40;;;;;;;20.99;64.92;98096.78;4982623;28;20254;-63
2021/10/12 00:08:18;;;;;;;4.50;4.10;;;;;;;21.06;65.19;98103.91;4981849;28;20238;-63
2021/10/12 00:10:45;;;;;;;3.67;3.37;;;;;;;21.10;65.40;98107.44;4974233;28;20246;-60
2021/10/12 00:13:11;;;;;;;4.10;3.80;;;;;;;21.09;65.27;98115.94;4977996;28;20642;-63
2021/10/12 00:15:38;;;;;;;4.07;3.70;;;;;;;21.12;65.45;98116.94;4972487;28;20234;-62
2021/10/12 00:18:05;;;;;;;3.87;3.57;;;;;;;21.13;65.43;98110.13;4981182;28;20204;-63
2021/10/12 00:20:31;;;;;;;4.10;3.80;;;;;;;20.96;65.34;98088.16;4972081;28;20199;-62
2021/10/12 00:22:58;;;;;;;3.57;3.27;;;;;;;21.12;65.04;98111.84;4965168;28;20239;-63
2021/10/12 00:25:24;;;;;;;3.80;3.50;;;;;;;21.13;65.21;98115.25;4976626;28;20311;-62
2021/10/12 00:27:51;;;;;;;3.50;3.20;;;;;;;21.12;65.28;98111.84;4963215;28;20203;-63
2021/10/12 00:30:17;;;;;;;3.53;3.23;;;;;;;21.12;65.42;98108.38;4979289;28;20302;-63
2021/10/12 00:32:44;;;;;;;3.97;3.67;;;;;;;21.06;65.26;98095.38;4978628;28;20239;-63
2021/10/12 00:35:11;;;;;;;3.33;3.13;;;;;;;21.12;65.61;98103.28;4959551;28;20642;-65
2021/10/12 00:37:37;;;;;;;3.47;3.17;;;;;;;21.12;64.96;98100.72;4975462;28;20569;-63
2021/10/12 00:40:04;;;;;;;3.87;3.57;;;;;;;21.11;65.37;98094.72;4985976;28;20227;-63
2021/10/12 00:42:31;;;;;;;3.40;3.10;;;;;;;21.10;65.58;98084.44;4983675;28;20270;-63
2021/10/12 00:44:57;;;;;;;3.63;3.33;;;;;;;21.09;65.36;98090.38;4981593;28;20318;-64
2021/10/12 00:47:24;;;;;;;3.63;3.33;;;;;;;21.04;65.55;98074.88;4978273;28;20224;-62
2021/10/12 00:49:51;;;;;;;3.80;3.50;;;;;;;21.07;65.55;98079.22;4975896;28;20593;-63
2021/10/12 00:52:17;;;;;;;3.67;3.37;;;;;;;21.08;65.58;98086.09;4976967;28;20207;-62
2021/10/12 00:54:44;;;;;;;3.50;3.20;;;;;;;21.03;65.43;98070.56;4977274;28;20235;-64
2021/10/12 00:57:10;;;;;;;3.63;3.33;;;;;;;21.04;65.44;98074.88;4956181;28;20238;-63
2021/10/12 00:59:37;;;;;;;3.43;3.13;;;;;;;21.03;65.62;98068.03;4967106;28;20234;-63
2021/10/12 01:02:04;;;;;;;4.00;3.70;;;;;;;21.06;65.29;98075.81;4959806;28;20246;-63
2021/10/12 01:04:32;;;;;;;3.77;3.40;;;;;;;21.07;65.52;98069.88;4976860;28;20234;-62
2021/10/12 01:06:58;;;;;;;4.00;3.70;;;;;;;21.07;65.43;98069.88;4969463;28;20231;-63
2021/10/12 01:09:25;;;;;;;5.97;3.37;;;;;;;21.08;65.49;98065.66;4977297;28;20224;-64
2021/10/12 01:11:51;;;;;;;3.13;2.93;;;;;;;21.05;65.16;98062.97;4972121;28;20293;-64
2021/10/12 01:14:18;;;;;;;3.63;3.33;;;;;;;21.00;65.42;98060.22;4953608;28;20298;-62
2021/10/12 01:16:44;;;;;;;3.37;3.07;;;;;;;21.09;65.49;98075.03;4967278;28;20743;-63
2021/10/12 01:19:11;;;;;;;3.30;3.00;;;;;;;21.05;65.81;98060.41;4976324;28;20696;-64
2021/10/12 01:21:43;;;;;;;3.50;3.20;;;;;;;21.10;65.62;98075.09;4948198;28;20254;-62
2021/10/12 01:24:10;;;;;;;3.43;3.13;;;;;;;20.96;65.77;98042.16;4969885;28;20242;-64
2021/10/12 01:26:39;;;;;;;3.60;3.30;;;;;;;21.07;65.37;98051.09;4968100;28;20258;-62
2021/10/12 01:29:06;;;;;;;3.50;3.20;;;;;;;21.12;65.71;98057.28;4950992;28;20250;-62
2021/10/12 01:31:33;;;;;;;3.40;3.10;;;;;;;21.13;65.57;98048.78;4980594;28;20234;-63
2021/10/12 01:33:59;;;;;;;3.60;3.30;;;;;;;21.08;65.47;98038.38;4976287;28;20238;-63
2021/10/12 01:36:26;;;;;;;3.73;3.40;;;;;;;21.14;65.44;98040.31;4970028;28;20262;-63
2021/10/12 01:38:52;;;;;;;3.27;3.07;;;;;;;21.15;65.55;98034.41;4978618;28;20285;-64
2021/10/12 01:41:19;;;;;;;3.70;3.40;;;;;;;21.15;65.55;98037.84;4983915;28;20231;-64
2021/10/12 01:43:45;;;;;;;3.73;3.43;;;;;;;21.02;65.54;98009.19;4950763;28;20230;-63
2021/10/12 01:46:12;;;;;;;3.40;3.10;;;;;;;21.16;65.62;98025.91;4974213;28;20259;-63
2021/10/12 01:48:39;;;;;;;3.43;3.13;;;;;;;21.16;65.55;98026.78;4977022;28;20653;-62
2021/10/12 01:51:05;;;;;;;3.57;3.27;;;;;;;21.01;65.46;97999.75;4978745;28;20301;-63
2021/10/12 01:53:32;;;;;;;3.73;3.43;;;;;;;21.13;65.36;98013.88;4971084;28;20317;-63
2021/10/12 01:55:58;;;;;;;3.60;3.30;;;;;;;21.18;65.60;98014.94;4967179;28;20708;-62
2021/10/12 01:58:25;;;;;;;3.67;3.27;;;;;;;21.19;65.81;98013.22;4975035;28;20242;-61
2021/10/12 02:00:52;;;;;;;3.77;3.47;;;;;;;21.19;65.45;98013.22;4968652;28;20627;-62
2021/10/12 02:03:18;;;;;;;3.13;2.93;;;;;;;21.20;65.46;98012.44;4979576;28;20234;-64
2021/10/12 02:05:45;;;;;;;3.00;2.80;;;;;;;21.19;65.46;98009.00;4981422;28;20270;-63
2021/10/12 02:08:12;;;;;;;3.37;3.07;;;;;;;21.19;65.85;98003.91;4979003;28;20289;-63
2021/10/12 02:10:39;;;;;;;3.57;3.27;;;;;;;21.20;65.12;98002.22;4982190;28;20225;-61
2021/10/12 02:13:05;;;;;;;3.73;3.33;;;;;;;21.21;65.08;97999.72;4975435;28;20231;-63
2021/10/12 02:15:32;;;;;;;3.30;3.00;;;;;;;21.21;65.86;97999.72;4975422;28;20314;-63
2021/10/12 02:17:59;;;;;;;3.30;3.00;;;;;;;21.20;65.72;97994.56;4981265;28;20211;-62
2021/10/12 02:20:25;;;;;;;3.03;2.83;;;;;;;21.14;65.61;97972.16;4980069;28;20230;-63
2021/10/12 02:22:52;;;;;;;3.30;3.00;;;;;;;21.23;65.48;97987.84;4963220;28;20243;-63
2021/10/12 02:25:18;;;;;;;3.10;2.90;;;;;;;21.22;65.87;97983.56;4977672;28;20246;-63
2021/10/12 02:27:45;;;;;;;3.43;3.13;;;;;;;21.23;65.99;97985.28;4980185;28;20617;-62
2021/10/12 02:30:11;;;;;;;3.40;3.10;;;;;;;21.19;65.67;97975.78;4950793;28;20723;-64
2021/10/12 02:32:38;;;;;;;3.50;3.20;;;;;;;21.19;65.75;97970.66;4975117;28;20299;-64
2021/10/12 02:35:05;;;;;;;3.57;3.27;;;;;;;21.24;65.54;97978.50;4969158;28;20309;-63
2021/10/12 02:37:32;;;;;;;3.20;3.00;;;;;;;21.23;65.79;97980.19;4974439;28;20262;-64
2021/10/12 02:39:58;;;;;;;3.80;3.50;;;;;;;21.24;65.89;97979.38;4970311;28;20234;-66
2021/10/12 02:42:25;;;;;;;3.50;3.20;;;;;;;21.20;65.98;97969.00;4979596;28;20728;-63
2021/10/12 02:44:51;;;;;;;3.40;3.10;;;;;;;21.25;65.48;97980.25;4970452;28;20273;-62
2021/10/12 02:47:18;;;;;;;2.90;2.70;;;;;;;21.23;65.46;97964.84;4976618;28;20242;-62
2021/10/12 02:49:45;;;;;;;3.40;3.10;;;;;;;21.20;65.53;97954.50;4976385;28;20278;-63
2021/10/12 02:52:12;;;;;;;3.27;2.97;;;;;;;21.26;65.70;97961.56;4974684;28;20661;-63
2021/10/12 02:54:38;;;;;;;3.07;2.87;;;;;;;21.26;65.61;97956.44;4960294;28;20283;-62
2021/10/12 02:57:05;;;;;;;3.10;2.90;;;;;;;21.27;65.14;97960.72;4975018;28;20239;-63
2021/10/12 02:59:31;;;;;;;3.50;3.20;;;;;;;21.26;65.31;97956.44;4974915;28;20242;-63
2021/10/12 03:01:58;;;;;;;3.30;3.00;;;;;;;21.25;65.35;97945.34;4975510;28;20202;-63
2021/10/12 03:04:25;;;;;;;3.03;2.83;;;;;;;21.24;65.33;97935.03;4979933;28;20202;-62
2021/10/12 03:06:51;;;;;;;3.00;2.70;;;;;;;21.26;65.31;97929.16;4975970;28;20250;-63
2021/10/12 03:09:18;;;;;;;3.53;3.23;;;;;;;21.27;65.39;97922.38;4964564;28;20261;-63
2021/10/12 03:11:45;;;;;;;3.40;3.10;;;;;;;21.16;65.47;97896.44;4983116;28;20234;-63
2021/10/12 03:14:11;;;;;;;3.10;2.90;;;;;;;21.26;65.40;97923.22;4959633;28;20242;-63
2021/10/12 03:16:42;;;;;;;3.30;3.00;;;;;;;20.82;65.50;97837.22;4965864;28;20219;-62
2021/10/12 03:19:11;;;;;;;3.50;3.20;;;;;;;21.22;65.27;97903.44;4960160;28;20207;-62
2021/10/12 03:21:43;;;;;;;3.40;3.10;;;;;;;21.27;65.46;97912.16;4963493;28;20234;-61
2021/10/12 03:24:09;;;;;;;3.00;2.80;;;;;;;21.26;65.43;97911.28;4971488;28;20203;-64
2021/10/12 03:26:36;;;;;;;3.50;3.20;;;;;;;21.26;65.50;97910.41;4976226;28;20253;-61
2021/10/12 03:29:04;;;;;;;3.53;3.23;;;;;;;21.27;65.64;97907.03;4972611;28;20203;-62
2021/10/12 03:31:31;;;;;;;2.93;2.73;;;;;;;21.26;65.67;97908.72;4947365;28;20524;-62
2021/10/12 03:33:58;;;;;;;3.30;3.00;;;;;;;21.21;65.85;97900.03;4971156;28;20200;-63
2021/10/12 03:36:24;;;;;;;3.23;2.93;;;;;;;21.27;65.38;97913.03;4965035;28;20223;-62
2021/10/12 03:38:51;;;;;;;3.00;2.77;;;;;;;21.24;65.49;97906.94;4971845;28;20227;-62
2021/10/12 03:41:17;;;;;;;3.50;3.20;;;;;;;21.27;65.62;97902.81;4955076;28;20606;-62
2021/10/12 03:43:44;;;;;;;3.33;3.03;;;;;;;21.26;65.68;97897.66;4970706;28;20267;-64
2021/10/12 03:46:12;;;;;;;3.30;3.00;;;;;;;21.16;65.53;97872.53;4969297;28;20331;-65
2021/10/12 03:48:38;;;;;;;3.13;2.83;;;;;;;21.22;65.44;97885.53;4949023;28;20200;-63
2021/10/12 03:51:07;;;;;;;3.30;3.10;;;;;;;21.24;65.46;97884.81;4954276;28;20314;-62
2021/10/12 03:53:35;;;;;;;3.40;3.10;;;;;;;21.24;65.73;97882.25;4961705;28;20484;-63
2021/10/12 03:56:02;;;;;;;3.07;2.87;;;;;;;21.27;65.70;97874.69;4953259;28;20248;-64
2021/10/12 03:58:28;;;;;;;3.30;3.00;;;;;;;21.27;65.69;97877.25;4971113;28;20299;-64
2021/10/12 04:00:55;;;;;;;3.47;3.17;;;;;;;21.22;65.33;97868.53;4979773;28;20759;-63
2021/10/12 04:03:22;;;;;;;2.90;2.70;;;;;;;21.25;65.45;97871.19;4988825;28;20604;-63
2021/10/12 04:05:49;;;;;;;3.90;3.53;;;;;;;21.26;65.71;97870.38;4985302;28;20234;-63
2021/10/12 04:08:16;;;;;;;3.20;2.90;;;;;;;21.27;65.80;97873.81;4968705;28;20282;-63
2021/10/12 04:10:42;;;;;;;2.90;2.70;;;;;;;21.25;65.61;97871.19;4986081;28;20712;-64
2021/10/12 04:13:09;;;;;;;3.37;3.07;;;;;;;21.22;65.57;97865.09;4979663;28;20745;-63
2021/10/12 04:15:36;;;;;;;3.27;2.97;;;;;;;21.23;65.65;97859.19;4956986;28;20266;-63
2021/10/12 04:18:03;;;;;;;3.50;3.20;;;;;;;21.24;65.66;97868.59;4962409;28;20685;-64
2021/10/12 04:20:29;;;;;;;2.90;2.70;;;;;;;21.17;65.89;97859.81;4984241;28;20206;-62
2021/10/12 04:22:57;;;;;;;3.23;2.93;;;;;;;21.22;65.73;97865.09;4963199;28;20713;-63
2021/10/12 04:25:23;;;;;;;3.00;2.80;;;;;;;21.22;66.14;97857.44;4976851;28;20246;-63
2021/10/12 04:27:51;;;;;;;2.90;2.70;;;;;;;21.21;65.59;97859.13;4981619;28;20230;-63
2021/10/12 04:30:18;;;;;;;3.00;2.80;;;;;;;21.14;65.59;97841.81;4976917;28;20307;-63
2021/10/12 04:32:45;;;;;;;2.80;2.60;;;;;;;21.22;65.90;97854.88;4956260;28;20266;-64
2021/10/12 04:35:11;;;;;;;3.10;2.90;;;;;;;21.22;65.65;97857.44;4978821;28;20286;-63
2021/10/12 04:37:38;;;;;;;3.10;2.90;;;;;;;20.98;66.17;97821.66;4981703;28;20234;-63
2021/10/12 04:40:05;;;;;;;2.93;2.73;;;;;;;21.21;65.85;97859.13;4968900;28;20207;-63
2021/10/12 04:42:32;;;;;;;3.33;2.73;;;;;;;21.22;66.11;97857.44;4982482;28;20292;-63
2021/10/12 04:44:58;;;;;;;3.03;2.70;;;;;;;21.17;65.81;97848.75;4949885;28;20266;-65
2021/10/12 04:47:25;;;;;;;3.13;2.90;;;;;;;21.22;65.99;97854.88;4970153;28;20330;-63
2021/10/12 04:49:51;;;;;;;3.10;2.80;;;;;;;21.21;65.90;97859.13;4977679;28;20257;-62
2021/10/12 04:52:18;;;;;;;2.90;2.70;;;;;;;21.22;66.04;97865.09;4948009;29;20204;-63
2021/10/12 04:54:45;;;;;;;3.10;2.90;;;;;;;21.22;65.77;97862.53;4978017;28;20565;-64
2021/10/12 04:57:11;;;;;;;3.33;3.03;;;;;;;21.21;66.12;97853.13;4965356;28;20752;-61
2021/10/12 04:59:38;;;;;;;3.10;2.90;;;;;;;21.18;65.88;97842.81;4978725;28;20254;-62
2021/10/12 05:02:04;;;;;;;3.00;2.70;;;;;;;21.21;65.69;97856.56;4969266;28;20235;-64
2021/10/12 05:04:31;;;;;;;3.17;2.97;;;;;;;21.18;65.97;97845.38;4982530;28;20677;-64
2021/10/12 05:06:58;;;;;;;3.13;2.80;;;;;;;21.22;66.09;97854.88;4978497;28;20231;-63
2021/10/12 05:09:25;;;;;;;3.17;2.87;;;;;;;21.20;66.06;97854.81;4983980;28;20246;-62
2021/10/12 05:11:51;;;;;;;3.00;2.80;;;;;;;21.21;65.85;97854.03;4977933;28;20313;-64
2021/10/12 05:14:18;;;;;;;3.60;3.30;;;;;;;21.22;65.95;97849.75;4978030;28;20235;-63
2021/10/12 05:16:45;;;;;;;3.60;3.30;;;;;;;21.22;65.95;97849.75;4978025;28;20274;-63
2021/10/12 05:19:12;;;;;;;3.40;3.10;;;;;;;21.20;65.81;97843.75;4965894;28;20241;-63
2021/10/12 05:21:38;;;;;;;7.00;5.00;;;;;;;21.22;65.60;97836.97;4982969;28;20231;-64
2021/10/12 05:24:06;;;;;;;12.63;9.10;;;;;;;21.22;64.38;97835.31;4981156;28;20640;-63
2021/10/12 05:26:33;;;;;;;14.77;11.77;;;;;;;21.22;62.76;97831.88;4976210;28;20348;-62
2021/10/12 05:28:59;;;;;;;15.53;12.27;;;;;;;21.21;61.66;97827.56;4973384;28;20208;-64
2021/10/12 05:31:26;;;;;;;14.73;12.43;;;;;;;21.11;61.28;97817.84;4984857;28;20685;-62
2021/10/12 05:33:52;;;;;;;16.63;11.90;;;;;;;21.14;61.34;97823.94;4947462;28;20249;-64
2021/10/12 05:36:19;;;;;;;14.17;11.47;;;;;;;21.17;61.86;97830.84;4935806;28;20223;-62
2021/10/12 05:38:46;;;;;;;12.93;11.20;;;;;;;21.17;61.89;97831.69;4975985;28;20278;-64
2021/10/12 05:41:12;;;;;;;14.67;11.03;;;;;;;21.05;62.37;97804.88;4951655;28;20265;-62
2021/10/12 05:43:39;;;;;;;14.83;11.47;;;;;;;21.10;62.67;97811.88;4954053;28;20756;-62
2021/10/12 05:46:05;;;;;;;13.30;10.10;;;;;;;21.17;63.08;97820.63;4957313;28;20318;-63
2021/10/12 05:48:32;;;;;;;11.93;10.27;;;;;;;21.17;63.31;97813.81;4967947;28;20204;-64
2021/10/12 05:50:59;;;;;;;13.17;9.80;;;;;;;21.17;63.40;97825.75;4974746;28;20271;-63
2021/10/12 05:53:28;;;;;;;10.00;8.97;;;;;;;21.18;63.59;97827.47;4977785;28;20678;-62
2021/10/12 06:00:59;;;;;;;10.07;8.63;;;;;;;21.17;64.12;97826.59;4966680;28;20352;-63
2021/10/12 06:03:26;;;;;;;9.00;8.07;;;;;;;21.17;64.02;97820.63;4969410;28;20195;-62
2021/10/12 06:05:53;;;;;;;8.73;7.83;;;;;;;21.13;64.24;97822.19;4976764;28;20222;-63
2021/10/12 06:08:19;;;;;;;9.33;7.73;;;;;;;21.17;64.58;97825.75;4946531;29;20287;-62
2021/10/12 06:10:46;;;;;;;8.67;7.60;;;;;;;21.18;64.54;97827.47;4979653;28;20219;-63
2021/10/12 06:13:13;;;;;;;8.73;7.77;;;;;;;21.18;64.60;97828.34;4986564;28;20940;-62
2021/10/12 06:15:40;;;;;;;18.40;7.87;;;;;;;21.19;64.74;97831.75;4976741;28;20393;-63
2021/10/12 06:18:07;;;;;;;9.93;7.17;;;;;;;21.17;64.41;97831.69;4958950;28;20249;-63
2021/10/12 06:20:35;;;;;;;9.83;7.40;;;;;;;21.19;64.79;97836.88;4969960;28;20241;-63
2021/10/12 06:23:01;;;;;;;8.17;7.00;;;;;;;21.15;65.00;97833.34;4974600;28;20231;-64
2021/10/12 06:25:28;;;;;;;7.97;7.17;;;;;;;21.15;64.80;97829.91;4973777;28;20258;-63
2021/10/12 06:27:55;;;;;;;11.47;7.77;;;;;;;21.15;64.96;97827.38;4975482;28;20281;-63
2021/10/12 06:30:21;;;;;;;18.13;13.87;;;;;;;21.17;62.01;97835.97;4952155;28;20254;-62
2021/10/12 06:32:48;;;;;;;15.70;13.77;;;;;;;21.16;61.05;97834.19;4980065;28;20234;-62
2021/10/12 06:35:14;;;;;;;17.77;13.10;;;;;;;21.15;61.69;97848.69;4961256;28;20262;-63
2021/10/12 06:37:41;;;;;;;19.67;12.77;;;;;;;21.10;62.01;97822.09;4981542;28;20693;-63
2021/10/12 06:40:08;;;;;;;19.77;13.67;;;;;;;20.97;62.28;97807.16;4954844;28;20206;-63
2021/10/12 06:42:34;;;;;;;15.63;12.87;;;;;;;21.05;62.30;97825.31;4968157;28;20645;-64
2021/10/12 06:45:01;;;;;;;16.50;12.23;;;;;;;21.15;62.76;97829.91;4940978;28;20265;-61
2021/10/12 06:47:28;;;;;;;16.83;11.93;;;;;;;21.15;62.85;97828.25;4980406;28;20237;-63
2021/10/12 06:49:54;;;;;;;16.60;11.57;;;;;;;21.15;63.35;97832.47;4959429;28;20650;-62
2021/10/12 06:52:21;;;;;;;13.73;11.33;;;;;;;21.11;63.15;97822.97;4963964;28;20653;-63
2021/10/12 06:54:50;;;;;;;15.97;12.40;;;;;;;21.16;63.17;97831.66;4974933;28;20299;-62
2021/10/12 06:57:17;;;;;;;18.70;15.80;;;;;;;21.14;61.13;97831.59;4974515;28;20287;-62
2021/10/12 06:59:43;;;;;;;25.33;18.07;;;;;;;21.13;59.68;97834.97;4962681;28;20234;-63
2021/10/12 07:02:10;;;;;;;22.93;17.57;;;;;;;21.12;59.81;97829.81;4961055;28;20223;-63
2021/10/12 07:04:39;;;;;;;21.80;17.10;;;;;;;21.09;59.98;97825.47;4963191;28;20206;-63
2021/10/12 07:07:05;;;;;;;19.10;16.07;;;;;;;21.06;60.66;97827.03;4968461;28;20231;-63
2021/10/12 07:09:32;;;;;;;23.57;17.03;;;;;;;21.10;60.87;97831.44;4964549;28;20385;-63
2021/10/12 07:11:58;;;;;;;23.47;16.20;;;;;;;21.10;61.06;97836.53;4975366;28;20250;-63
2021/10/12 07:14:25;;;;;;;23.40;15.07;;;;;;;21.10;61.43;97836.53;4974693;28;20666;-63
2021/10/12 07:16:52;;;;;;;19.00;14.80;;;;;;;21.10;61.39;97833.97;4980117;28;20306;-63
2021/10/12 07:19:18;;;;;;;17.00;14.37;;;;;;;21.09;61.76;97830.59;4976538;28;20641;-63
2021/10/12 07:21:45;;;;;;;19.53;14.57;;;;;;;21.08;62.13;97831.38;4976086;28;20677;-63
2021/10/12 07:24:12;;;;;;;16.47;14.20;;;;;;;20.91;62.11;97800.91;4966617;28;20313;-63
2021/10/12 07:26:39;;;;;;;19.43;14.40;;;;;;;21.06;62.28;97821.94;4965861;28;20247;-63
2021/10/12 07:29:05;;;;;;;19.27;14.40;;;;;;;21.07;62.81;97828.75;4981018;28;20203;-63
2021/10/12 07:31:32;;;;;;;19.07;14.27;;;;;;;21.02;62.90;97827.75;4975781;28;20314;-63
2021/10/12 07:33:59;;;;;;;19.63;13.43;;;;;;;21.02;63.13;97822.66;4963397;28;20706;-63
2021/10/12 07:36:25;;;;;;;17.23;12.80;;;;;;;21.08;63.37;97833.94;4976538;28;20253;-63
2021/10/12 07:38:52;;;;;;;23.03;13.30;;;;;;;21.08;63.15;97826.25;4976167;28;20227;-63
2021/10/12 07:41:27;;;;;;;16.43;13.10;;;;;;;21.08;62.98;97823.72;4974177;28;20206;-63
2021/10/12 07:43:53;;;;;;;16.60;13.40;;;;;;;21.04;63.56;97821.00;4961456;28;20235;-63
2021/10/12 07:46:20;;;;;;;14.87;11.80;;;;;;;21.10;63.35;97828.88;4965916;28;20226;-63
2021/10/12 07:48:46;;;;;;;17.30;12.30;;;;;;;21.10;63.38;97827.19;4958820;28;20236;-62
2021/10/12 07:51:33;;;;;;;14.43;12.03;;;;;;;21.06;63.54;97819.38;4983691;28;20595;-63
2021/10/12 07:54:01;;;;;;;22.33;12.07;;;;;;;21.12;63.81;97827.25;4958332;28;20234;-62
2021/10/12 07:56:37;;;;;;;18.37;12.60;;;;;;;21.12;63.45;97824.69;4976376;28;20266;-62
2021/10/12 07:59:04;;;;;;;15.73;11.83;;;;;;;21.11;63.69;97828.94;4970430;28;20199;-63
2021/10/12 08:01:32;;;;;;;13.40;11.17;;;;;;;21.10;63.69;97822.09;4977636;28;20223;-62
2021/10/12 08:04:00;;;;;;;15.20;11.03;;;;;;;21.12;63.56;97829.81;4985984;28;20575;-63
2021/10/12 08:06:26;;;;;;;12.63;10.67;;;;;;;21.04;63.80;97819.31;4977327;28;20351;-62
2021/10/12 08:08:53;;;;;;;14.07;9.57;;;;;;;21.13;63.88;97823.88;4972881;28;20222;-63
2021/10/12 08:11:24;;;;;;;13.67;10.40;;;;;;;21.13;63.83;97829.88;4977525;28;20216;-63
2021/10/12 08:13:54;;;;;;;14.77;10.43;;;;;;;21.14;63.71;97828.19;4978880;28;20689;-63
2021/10/12 08:16:26;;;;;;;10.77;9.23;;;;;;;21.13;64.01;97826.44;4968686;28;20307;-62
2021/10/12 08:18:53;;;;;;;21.60;10.97;;;;;;;21.12;64.02;97817.03;4972949;28;20207;-62
2021/10/12 08:21:20;;;;;;;12.63;9.97;;;;;;;21.13;64.14;97827.31;4977448;28;20200;-62
2021/10/12 08:23:47;;;;;;;16.97;10.93;;;;;;;21.13;64.12;97827.31;4978655;28;20669;-62
2021/10/12 08:26:15;;;;;;;13.37;9.77;;;;;;;21.12;63.97;97820.47;4976652;28;20302;-64
2021/10/12 08:28:41;;;;;;;15.60;10.23;;;;;;;21.14;64.19;97825.63;4963880;28;20203;-63
2021/10/12 08:31:08;;;;;;;12.87;9.60;;;;;;;21.13;64.26;97817.09;4971416;28;20322;-61
2021/10/12 08:33:35;;;;;;;20.23;10.00;;;;;;;21.13;64.33;97809.41;4964799;28;20207;-63
2021/10/12 08:36:01;;;;;;;15.80;10.27;;;;;;;21.15;64.07;97814.59;4980660;28;20266;-64
2021/10/12 08:38:53;;;;;;;16.87;10.20;;;;;;;21.15;64.21;97804.38;4969861;28;20202;-63
2021/10/12 08:41:21;;;;;;;16.27;9.60;;;;;;;21.15;64.23;97796.69;4975769;28;20254;-63
2021/10/12 08:43:47;;;;;;;21.70;9.57;;;;;;;21.15;64.35;97802.69;4980050;28;20221;-63
2021/10/12 08:46:14;;;;;;;17.40;9.63;;;;;;;21.16;64.34;97795.88;4954226;28;20270;-64
2021/10/12 08:48:40;;;;;;;15.77;9.13;;;;;;;21.13;64.42;97791.53;4958128;28;20223;-63
2021/10/12 08:51:07;;;;;;;13.60;9.10;;;;;;;21.17;64.94;97800.19;4975850;28;20309;-63
2021/10/12 08:53:33;;;;;;;12.10;8.60;;;;;;;21.17;64.43;97790.81;4976457;28;20238;-62
2021/10/12 08:56:00;;;;;;;12.90;8.93;;;;;;;21.16;64.47;97786.53;4975231;28;20246;-63
2021/10/12 08:58:27;;;;;;;12.60;8.37;;;;;;;21.03;64.42;97769.03;4955635;28;20207;-63
2021/10/12 09:01:20;;;;;;;13.40;7.90;;;;;;;21.18;64.57;97792.56;4975729;28;20290;-63
2021/10/12 09:06:32;;;;;;;9.40;7.70;;;;;;;21.04;64.46;97764.78;4966797;28;20728;-63
2021/10/12 09:09:15;;;;;;;16.53;8.50;;;;;;;21.18;64.48;97784.91;4972164;28;20618;-63
2021/10/12 09:11:43;;;;;;;10.73;8.63;;;;;;;21.19;64.46;97790.84;4965136;28;20223;-63
2021/10/12 09:14:11;;;;;;;10.93;8.30;;;;;;;21.19;64.72;97788.31;4975514;28;20307;-63
2021/10/12 09:16:40;;;;;;;11.73;7.30;;;;;;;21.16;64.66;97780.53;4980693;28;20230;-63
2021/10/12 09:19:08;;;;;;;10.10;7.67;;;;;;;21.19;64.59;97784.06;4962275;28;20230;-61
2021/10/12 09:21:42;;;;;;;13.27;7.93;;;;;;;21.19;64.67;97784.06;4975960;28;20196;-62
2021/10/12 09:24:11;;;;;;;11.77;8.00;;;;;;;21.20;64.64;97777.28;4968036;28;20246;-61
2021/10/12 09:26:46;;;;;;;12.10;8.00;;;;;;;21.16;64.71;97765.19;4976275;28;20297;-63
2021/10/12 09:29:22;;;;;;;11.60;7.97;;;;;;;21.21;64.74;97768.78;4962596;28;20230;-63
2021/10/12 09:31:48;;;;;;;9.23;7.07;;;;;;;21.09;64.60;97745.38;4959570;28;20779;-63
2021/10/12 09:34:16;;;;;;;10.43;7.87;;;;;;;21.20;64.67;97762.81;4973483;28;20203;-63
2021/10/12 09:36:46;;;;;;;10.53;7.50;;;;;;;21.18;64.89;97754.22;4968251;28;20266;-64
2021/10/12 09:39:26;;;;;;;12.07;8.30;;;;;;;21.20;64.57;97757.69;4975069;28;20625;-62
2021/10/12 09:41:57;;;;;;;10.80;7.47;;;;;;;21.16;64.82;97752.41;4968895;28;20261;-62
2021/10/12 09:44:23;;;;;;;9.03;7.47;;;;;;;21.21;64.51;97756.88;4949261;28;20203;-64
2021/10/12 09:46:51;;;;;;;11.37;7.23;;;;;;;21.17;64.64;97749.06;4967762;28;20285;-63
2021/10/12 09:49:21;;;;;;;9.13;7.13;;;;;;;21.21;65.36;97750.91;4953312;28;20199;-63
2021/10/12 09:51:55;;;;;;;7.93;7.03;;;;;;;21.20;64.74;97747.47;4984862;28;20307;-64
2021/10/12 09:54:35;;;;;;;8.80;6.80;;;;;;;21.10;64.84;97727.53;4974824;28;20326;-63
2021/10/12 09:57:03;;;;;;;10.67;6.90;;;;;;;21.18;64.84;97738.91;4948615;28;20298;-62
2021/10/12 09:59:30;;;;;;;9.00;7.60;;;;;;;21.19;65.01;97735.50;4966867;28;20235;-63
2021/10/12 10:01:57;;;;;;;8.13;6.63;;;;;;;21.20;65.17;97736.41;4975281;28;20616;-63
2021/10/12 10:04:24;;;;;;;8.67;6.60;;;;;;;21.15;64.70;97720.91;4981194;28;20222;-63
2021/10/12 10:06:53;;;;;;;7.77;6.70;;;;;;;21.20;64.82;97723.63;4966709;28;20250;-64
2021/10/12 10:09:21;;;;;;;7.73;6.63;;;;;;;20.61;65.01;97616.81;4982284;28;20235;-63
2021/10/12 10:11:48;;;;;;;9.10;7.03;;;;;;;21.15;64.92;97707.25;4967159;28;20696;-63
2021/10/12 10:14:16;;;;;;;9.23;6.33;;;;;;;21.20;65.17;97721.06;4960841;28;20208;-64
2021/10/12 10:16:45;;;;;;;8.27;6.33;;;;;;;21.18;64.97;97710.78;4978139;28;20408;-60
2021/10/12 10:19:19;;;;;;;8.17;6.57;;;;;;;21.01;65.03;97681.22;4967332;28;20641;-63
2021/10/12 10:21:46;;;;;;;7.90;6.40;;;;;;;21.11;64.91;97703.69;4964891;28;20238;-63
2021/10/12 10:24:23;;;;;;;7.53;6.10;;;;;;;21.21;65.00;97718.56;4952897;28;20310;-62
2021/10/12 10:26:51;;;;;;;9.43;6.43;;;;;;;21.18;65.17;97709.91;4975429;28;20256;-63
2021/10/12 10:29:36;;;;;;;7.43;6.40;;;;;;;21.14;65.01;97696.13;4966106;28;20238;-62
2021/10/12 10:32:22;;;;;;;7.13;6.07;;;;;;;21.16;64.97;97694.50;4968196;28;20278;-64
2021/10/12 10:35:00;;;;;;;8.23;6.40;;;;;;;21.18;65.36;97698.00;4969665;28;20230;-62
2021/10/12 10:37:28;;;;;;;8.17;6.00;;;;;;;21.21;65.13;97703.22;4969357;28;20202;-65
2021/10/12 10:39:59;;;;;;;6.53;5.70;;;;;;;21.19;65.00;97694.63;4971928;28;20269;-63
2021/10/12 10:42:25;;;;;;;6.97;5.37;;;;;;;21.20;65.01;97692.94;4975658;28;20204;-62
2021/10/12 10:45:02;;;;;;;6.03;5.40;;;;;;;21.20;65.28;97690.38;4974828;28;20309;-62
2021/10/12 10:47:41;;;;;;;6.77;5.67;;;;;;;21.19;65.34;97694.63;4959776;28;20503;-64
2021/10/12 10:50:29;;;;;;;7.07;5.73;;;;;;;21.18;65.16;97685.22;4974517;28;20226;-63
2021/10/12 10:52:57;;;;;;;8.80;5.83;;;;;;;21.19;65.32;97681.84;5016626;23;20276;-64
2021/10/12 10:55:24;;;;;;;7.60;6.10;;;;;;;20.47;65.30;97558.41;5011373;28;20202;-65
2021/10/12 10:58:09;;;;;;;8.20;6.30;;;;;;;21.20;65.32;97687.84;5034179;28;20200;-65
2021/10/12 11:00:44;;;;;;;7.07;5.67;;;;;;;21.20;65.47;97675.06;5030850;28;20225;-64
2021/10/12 11:03:25;;;;;;;6.63;5.77;;;;;;;21.19;65.27;97684.41;5033708;28;20219;-65
2021/10/12 11:05:52;;;;;;;6.43;5.13;;;;;;;21.15;65.30;97658.69;5033565;28;20196;-65
2021/10/12 11:08:23;;;;;;;6.47;5.00;;;;;;;21.19;65.50;97673.28;5007722;28;20708;-65
2021/10/12 11:11:00;;;;;;;5.60;5.07;;;;;;;21.00;65.42;97630.06;5028520;28;20280;-64
2021/10/12 11:13:41;;;;;;;6.33;5.27;;;;;;;21.20;65.53;97654.59;5025325;28;20360;-65
2021/10/12 11:16:10;;;;;;;6.07;5.43;;;;;;;21.20;65.22;97657.16;5022360;28;20197;-65
2021/10/12 11:18:37;;;;;;;5.50;4.93;;;;;;;20.14;65.28;97467.94;5030840;28;20679;-65
2021/10/12 11:21:05;;;;;;;5.77;4.97;;;;;;;21.20;65.48;97652.91;5015855;28;20259;-65
2021/10/12 11:23:33;;;;;;;5.40;4.73;;;;;;;21.21;65.29;97651.22;5033793;28;20252;-65
2021/10/12 11:26:11;;;;;;;7.30;4.90;;;;;;;21.21;65.56;97643.53;5033358;28;20655;-65
2021/10/12 11:28:39;;;;;;;6.33;4.40;;;;;;;21.20;65.37;97622.22;5038940;28;20295;-64
2021/10/12 11:31:08;;;;;;;5.83;4.60;;;;;;;21.19;65.62;97625.59;5040177;28;20240;-65
2021/10/12 11:33:37;;;;;;;6.43;5.23;;;;;;;21.19;65.54;97624.72;5043107;28;20231;-65
2021/10/12 11:36:04;;;;;;;6.97;5.37;;;;;;;21.20;65.43;97629.03;5042081;28;20225;-64
2021/10/12 11:38:36;;;;;;;6.53;5.80;;;;;;;21.21;65.73;97628.22;5037103;28;20240;-65
2021/10/12 11:41:15;;;;;;;6.07;5.27;;;;;;;21.20;65.69;97621.38;5020135;28;20654;-64